Galt, Canada
Current Conditions -  °F | °C
As of 10:00 PM on Monday 26 Jan 2015 (Local Time) from CYKF Reporting Station
Overcast Overcast  
Wind Chill: -16°   Ceiling: 2100
Heat Index: -11°   Visibility: 9mi
Dew Point: -18°   Wind: 6mph
Humidity: 57%   Direction: 10°N
Pressure: 29.95"   Gusts: NA
Location:  43.35°N, 80.3°W
Report Text: CYKF 270300Z AUTO 01005KT 9SM OVC021 M11/M18 A2995 RMK SLP166
Loading
Personal Weather Stations






























Interactive Weather Map New forecast layout! Learn more

10-Day Weather Forecast

Advertisements
Track Severe Weather on mobile